sensor_id;sensor_type;location;lat;lon;timestamp;temperature;humidity
25112;DHT22;13092;51.996;4.458;2023-02-08T00:01:23;1.40;99.90
25112;DHT22;13092;51.996;4.458;2023-02-08T00:03:51;1.40;99.90
25112;DHT22;13092;51.996;4.458;2023-02-08T00:06:20;1.40;99.90
25112;DHT22;13092;51.996;4.458;2023-02-08T00:08:48;1.40;99.90
25112;DHT22;13092;51.996;4.458;2023-02-08T00:11:18;1.30;99.90
25112;DHT22;13092;51.996;4.458;2023-02-08T00:13:46;1.20;99.90
25112;DHT22;13092;51.996;4.458;2023-02-08T00:16:14;1.20;99.90
25112;DHT22;13092;51.996;4.458;2023-02-08T00:18:44;1.20;99.90
25112;DHT22;13092;51.996;4.458;2023-02-08T00:21:14;1.20;99.90
25112;DHT22;13092;51.996;4.458;2023-02-08T00:23:43;1.20;99.90
25112;DHT22;13092;51.996;4.458;2023-02-08T00:26:12;1.10;99.90
25112;DHT22;13092;51.996;4.458;2023-02-08T00:28:42;1.10;99.90
25112;DHT22;13092;51.996;4.458;2023-02-08T00:31:10;1.10;99.90
25112;DHT22;13092;51.996;4.458;2023-02-08T00:33:38;1.10;99.90
25112;DHT22;13092;51.996;4.458;2023-02-08T00:36:07;1.10;99.90
25112;DHT22;13092;51.996;4.458;2023-02-08T00:38:35;1.10;99.90
25112;DHT22;13092;51.996;4.458;2023-02-08T00:41:04;1.40;99.90
25112;DHT22;13092;51.996;4.458;2023-02-08T00:43:33;1.10;99.90
25112;DHT22;13092;51.996;4.458;2023-02-08T00:46:03;1.70;99.90
25112;DHT22;13092;51.996;4.458;2023-02-08T00:48:33;1.10;99.90
25112;DHT22;13092;51.996;4.458;2023-02-08T00:51:04;1.10;99.90
25112;DHT22;13092;51.996;4.458;2023-02-08T00:53:35;1.20;99.90
25112;DHT22;13092;51.996;4.458;2023-02-08T00:56:04;1.40;99.90
25112;DHT22;13092;51.996;4.458;2023-02-08T00:58:33;1.20;99.90
25112;DHT22;13092;51.996;4.458;2023-02-08T01:01:04;1.10;99.90
25112;DHT22;13092;51.996;4.458;2023-02-08T01:03:33;1.20;99.90
25112;DHT22;13092;51.996;4.458;2023-02-08T01:06:03;1.00;99.90
25112;DHT22;13092;51.996;4.458;2023-02-08T01:08:32;1.10;99.90
25112;DHT22;13092;51.996;4.458;2023-02-08T01:11:04;1.10;99.90
25112;DHT22;13092;51.996;4.458;2023-02-08T01:13:33;1.10;99.90
25112;DHT22;13092;51.996;4.458;2023-02-08T01:16:08;1.30;99.90
25112;DHT22;13092;51.996;4.458;2023-02-08T01:18:38;1.00;99.90
25112;DHT22;13092;51.996;4.458;2023-02-08T01:21:08;1.00;99.90
25112;DHT22;13092;51.996;4.458;2023-02-08T01:23:36;1.00;99.90
25112;DHT22;13092;51.996;4.458;2023-02-08T01:26:05;1.30;99.90
25112;DHT22;13092;51.996;4.458;2023-02-08T01:28:34;0.90;99.90
25112;DHT22;13092;51.996;4.458;2023-02-08T01:31:08;1.00;99.90
25112;DHT22;13092;51.996;4.458;2023-02-08T01:33:36;1.10;99.90
25112;DHT22;13092;51.996;4.458;2023-02-08T01:36:05;2.20;99.90
25112;DHT22;13092;51.996;4.458;2023-02-08T01:38:34;0.90;99.90
25112;DHT22;13092;51.996;4.458;2023-02-08T01:41:04;0.90;99.90
25112;DHT22;13092;51.996;4.458;2023-02-08T01:43:34;0.90;99.90
25112;DHT22;13092;51.996;4.458;2023-02-08T01:46:23;0.80;99.90
25112;DHT22;13092;51.996;4.458;2023-02-08T01:48:53;0.70;99.90
25112;DHT22;13092;51.996;4.458;2023-02-08T01:51:25;1.10;99.90
25112;DHT22;13092;51.996;4.458;2023-02-08T01:53:56;0.70;99.90
25112;DHT22;13092;51.996;4.458;2023-02-08T01:56:27;0.70;99.90
25112;DHT22;13092;51.996;4.458;2023-02-08T01:59:00;0.60;99.90
25112;DHT22;13092;51.996;4.458;2023-02-08T02:01:30;0.50;99.90
25112;DHT22;13092;51.996;4.458;2023-02-08T02:04:00;0.40;99.90
25112;DHT22;13092;51.996;4.458;2023-02-08T02:06:32;0.40;99.90
25112;DHT22;13092;51.996;4.458;2023-02-08T02:09:06;0.40;99.90
25112;DHT22;13092;51.996;4.458;2023-02-08T02:11:36;0.40;99.90
25112;DHT22;13092;51.996;4.458;2023-02-08T02:14:05;0.50;99.90
25112;DHT22;13092;51.996;4.458;2023-02-08T02:16:35;0.50;99.90
25112;DHT22;13092;51.996;4.458;2023-02-08T02:19:04;0.90;99.90
25112;DHT22;13092;51.996;4.458;2023-02-08T02:21:49;0.50;99.90
25112;DHT22;13092;51.996;4.458;2023-02-08T02:24:36;0.50;99.90
25112;DHT22;13092;51.996;4.458;2023-02-08T02:30:29;0.50;99.90
25112;DHT22;13092;51.996;4.458;2023-02-08T02:33:21;0.50;99.90
25112;DHT22;13092;51.996;4.458;2023-02-08T02:35:57;0.50;99.90
25112;DHT22;13092;51.996;4.458;2023-02-08T02:38:33;0.50;99.90
25112;DHT22;13092;51.996;4.458;2023-02-08T02:41:06;0.50;99.90
25112;DHT22;13092;51.996;4.458;2023-02-08T02:43:41;0.50;99.90
25112;DHT22;13092;51.996;4.458;2023-02-08T02:46:21;0.50;99.90
25112;DHT22;13092;51.996;4.458;2023-02-08T02:48:58;0.40;99.90
25112;DHT22;13092;51.996;4.458;2023-02-08T02:51:34;0.40;99.90
25112;DHT22;13092;51.996;4.458;2023-02-08T02:54:08;0.40;99.90
25112;DHT22;13092;51.996;4.458;2023-02-08T02:56:40;0.40;99.90
25112;DHT22;13092;51.996;4.458;2023-02-08T02:59:11;0.40;99.90
25112;DHT22;13092;51.996;4.458;2023-02-08T03:01:41;0.30;99.90
25112;DHT22;13092;51.996;4.458;2023-02-08T03:04:14;0.30;99.90
25112;DHT22;13092;51.996;4.458;2023-02-08T03:06:53;0.30;99.90
25112;DHT22;13092;51.996;4.458;2023-02-08T03:09:46;0.40;99.90
25112;DHT22;13092;51.996;4.458;2023-02-08T03:12:28;0.40;99.90
25112;DHT22;13092;51.996;4.458;2023-02-08T03:15:05;0.40;99.90
25112;DHT22;13092;51.996;4.458;2023-02-08T03:17:52;0.40;99.90
25112;DHT22;13092;51.996;4.458;2023-02-08T03:20:27;0.50;99.90
25112;DHT22;13092;51.996;4.458;2023-02-08T03:23:01;0.30;99.90
25112;DHT22;13092;51.996;4.458;2023-02-08T03:25:35;0.30;99.90
25112;DHT22;13092;51.996;4.458;2023-02-08T03:28:07;0.30;99.90
25112;DHT22;13092;51.996;4.458;2023-02-08T03:30:42;0.60;99.90
25112;DHT22;13092;51.996;4.458;2023-02-08T03:33:20;0.30;99.90
25112;DHT22;13092;51.996;4.458;2023-02-08T03:35:55;0.30;99.90
25112;DHT22;13092;51.996;4.458;2023-02-08T03:38:28;0.30;99.90
25112;DHT22;13092;51.996;4.458;2023-02-08T03:41:01;0.30;99.90
25112;DHT22;13092;51.996;4.458;2023-02-08T03:43:34;0.20;99.90
25112;DHT22;13092;51.996;4.458;2023-02-08T03:46:08;0.20;99.90
25112;DHT22;13092;51.996;4.458;2023-02-08T03:48:40;0.20;99.90
25112;DHT22;13092;51.996;4.458;2023-02-08T03:51:11;0.20;99.90
25112;DHT22;13092;51.996;4.458;2023-02-08T03:53:42;0.30;99.90
25112;DHT22;13092;51.996;4.458;2023-02-08T03:56:14;0.30;99.90
25112;DHT22;13092;51.996;4.458;2023-02-08T03:58:47;0.40;99.90
25112;DHT22;13092;51.996;4.458;2023-02-08T04:01:19;0.40;99.90
25112;DHT22;13092;51.996;4.458;2023-02-08T04:03:51;0.30;99.90
25112;DHT22;13092;51.996;4.458;2023-02-08T04:06:23;0.30;99.90
25112;DHT22;13092;51.996;4.458;2023-02-08T04:08:51;0.30;99.90
25112;DHT22;13092;51.996;4.458;2023-02-08T04:11:19;0.20;99.90
25112;DHT22;13092;51.996;4.458;2023-02-08T04:13:47;0.10;99.90
25112;DHT22;13092;51.996;4.458;2023-02-08T04:16:15;0.00;99.90
25112;DHT22;13092;51.996;4.458;2023-02-08T04:18:44;0.20;99.90
25112;DHT22;13092;51.996;4.458;2023-02-08T04:21:12;0.00;99.90
25112;DHT22;13092;51.996;4.458;2023-02-08T04:23:41;-0.10;99.90
25112;DHT22;13092;51.996;4.458;2023-02-08T04:26:10;-0.10;99.90
25112;DHT22;13092;51.996;4.458;2023-02-08T04:28:38;-0.20;99.90
25112;DHT22;13092;51.996;4.458;2023-02-08T04:31:06;-0.10;99.90
25112;DHT22;13092;51.996;4.458;2023-02-08T04:33:34;-0.10;99.90
25112;DHT22;13092;51.996;4.458;2023-02-08T04:36:05;0.00;99.90
25112;DHT22;13092;51.996;4.458;2023-02-08T04:38:34;0.00;99.90
25112;DHT22;13092;51.996;4.458;2023-02-08T04:41:04;0.00;99.90
25112;DHT22;13092;51.996;4.458;2023-02-08T04:43:32;0.00;99.90
25112;DHT22;13092;51.996;4.458;2023-02-08T04:46:00;0.00;99.90
25112;DHT22;13092;51.996;4.458;2023-02-08T04:48:31;0.00;99.90
25112;DHT22;13092;51.996;4.458;2023-02-08T04:50:59;-0.10;99.90
25112;DHT22;13092;51.996;4.458;2023-02-08T04:53:27;-0.10;99.90
25112;DHT22;13092;51.996;4.458;2023-02-08T04:55:55;-0.10;99.90
25112;DHT22;13092;51.996;4.458;2023-02-08T04:58:24;-0.10;99.90
25112;DHT22;13092;51.996;4.458;2023-02-08T05:00:53;0.20;99.90
25112;DHT22;13092;51.996;4.458;2023-02-08T05:03:21;0.00;99.90
25112;DHT22;13092;51.996;4.458;2023-02-08T05:05:55;0.00;99.90
25112;DHT22;13092;51.996;4.458;2023-02-08T05:08:24;0.00;99.90
25112;DHT22;13092;51.996;4.458;2023-02-08T05:10:53;0.00;99.90
25112;DHT22;13092;51.996;4.458;2023-02-08T05:13:21;0.10;99.90
25112;DHT22;13092;51.996;4.458;2023-02-08T05:15:51;0.10;99.90
25112;DHT22;13092;51.996;4.458;2023-02-08T05:18:19;0.00;99.90
25112;DHT22;13092;51.996;4.458;2023-02-08T05:20:53;0.10;99.90
25112;DHT22;13092;51.996;4.458;2023-02-08T05:23:22;0.10;99.90
25112;DHT22;13092;51.996;4.458;2023-02-08T05:25:51;0.00;99.90
25112;DHT22;13092;51.996;4.458;2023-02-08T05:28:20;0.00;99.90
25112;DHT22;13092;51.996;4.458;2023-02-08T05:30:54;0.00;99.90
25112;DHT22;13092;51.996;4.458;2023-02-08T05:33:22;0.00;99.90
25112;DHT22;13092;51.996;4.458;2023-02-08T05:35:50;0.00;99.90
25112;DHT22;13092;51.996;4.458;2023-02-08T05:38:18;0.00;99.90
25112;DHT22;13092;51.996;4.458;2023-02-08T05:40:46;0.00;99.90
25112;DHT22;13092;51.996;4.458;2023-02-08T05:43:14;0.60;99.90
25112;DHT22;13092;51.996;4.458;2023-02-08T05:45:42;0.00;99.90
25112;DHT22;13092;51.996;4.458;2023-02-08T05:48:12;0.00;99.90
25112;DHT22;13092;51.996;4.458;2023-02-08T05:50:40;0.00;99.90
25112;DHT22;13092;51.996;4.458;2023-02-08T05:53:08;0.10;99.90
25112;DHT22;13092;51.996;4.458;2023-02-08T05:55:37;0.10;99.90
25112;DHT22;13092;51.996;4.458;2023-02-08T05:58:05;0.10;99.90
25112;DHT22;13092;51.996;4.458;2023-02-08T06:00:33;0.10;99.90
25112;DHT22;13092;51.996;4.458;2023-02-08T06:03:01;0.00;99.90
25112;DHT22;13092;51.996;4.458;2023-02-08T06:05:31;0.00;99.90
25112;DHT22;13092;51.996;4.458;2023-02-08T06:07:59;0.10;99.90
25112;DHT22;13092;51.996;4.458;2023-02-08T06:10:27;1.00;99.90
25112;DHT22;13092;51.996;4.458;2023-02-08T06:12:55;0.10;99.90
25112;DHT22;13092;51.996;4.458;2023-02-08T06:15:23;0.00;99.90
25112;DHT22;13092;51.996;4.458;2023-02-08T06:17:54;0.00;99.90
25112;DHT22;13092;51.996;4.458;2023-02-08T06:20:22;0.00;99.90
25112;DHT22;13092;51.996;4.458;2023-02-08T06:22:51;0.00;99.90
25112;DHT22;13092;51.996;4.458;2023-02-08T06:25:19;-0.10;99.90
25112;DHT22;13092;51.996;4.458;2023-02-08T06:27:47;-0.10;99.90
25112;DHT22;13092;51.996;4.458;2023-02-08T06:30:16;0.40;99.90
25112;DHT22;13092;51.996;4.458;2023-02-08T06:32:44;-0.10;99.90
25112;DHT22;13092;51.996;4.458;2023-02-08T06:35:12;-0.10;99.90
25112;DHT22;13092;51.996;4.458;2023-02-08T06:37:40;-0.10;99.90
25112;DHT22;13092;51.996;4.458;2023-02-08T06:40:13;-0.10;99.90
25112;DHT22;13092;51.996;4.458;2023-02-08T06:42:41;0.10;99.90
25112;DHT22;13092;51.996;4.458;2023-02-08T06:45:09;0.60;99.90
25112;DHT22;13092;51.996;4.458;2023-02-08T06:47:39;0.10;99.90
25112;DHT22;13092;51.996;4.458;2023-02-08T06:50:08;-0.20;99.90
25112;DHT22;13092;51.996;4.458;2023-02-08T06:52:36;-0.20;99.90
25112;DHT22;13092;51.996;4.458;2023-02-08T06:55:05;-0.20;99.90
25112;DHT22;13092;51.996;4.458;2023-02-08T06:57:35;-0.20;99.90
25112;DHT22;13092;51.996;4.458;2023-02-08T07:00:03;-0.30;99.90
25112;DHT22;13092;51.996;4.458;2023-02-08T07:02:32;-0.30;99.90
25112;DHT22;13092;51.996;4.458;2023-02-08T07:05:00;-0.30;99.90
25112;DHT22;13092;51.996;4.458;2023-02-08T07:07:29;-0.30;99.90
25112;DHT22;13092;51.996;4.458;2023-02-08T07:09:59;-0.30;99.90
25112;DHT22;13092;51.996;4.458;2023-02-08T07:12:27;-0.40;99.90
25112;DHT22;13092;51.996;4.458;2023-02-08T07:14:57;0.40;99.90
25112;DHT22;13092;51.996;4.458;2023-02-08T07:17:25;-0.40;99.90
25112;DHT22;13092;51.996;4.458;2023-02-08T07:19:54;-0.40;99.90
25112;DHT22;13092;51.996;4.458;2023-02-08T07:22:28;-0.30;99.90
25112;DHT22;13092;51.996;4.458;2023-02-08T07:24:56;-0.30;99.90
25112;DHT22;13092;51.996;4.458;2023-02-08T07:27:24;-0.30;99.90
25112;DHT22;13092;51.996;4.458;2023-02-08T07:29:53;-0.30;99.90
25112;DHT22;13092;51.996;4.458;2023-02-08T07:32:22;-0.30;99.90
25112;DHT22;13092;51.996;4.458;2023-02-08T07:34:50;-0.30;99.90
25112;DHT22;13092;51.996;4.458;2023-02-08T07:37:19;-0.30;99.90
25112;DHT22;13092;51.996;4.458;2023-02-08T07:39:47;-0.30;99.90
25112;DHT22;13092;51.996;4.458;2023-02-08T07:42:16;-0.30;99.90
25112;DHT22;13092;51.996;4.458;2023-02-08T07:44:44;-0.30;99.90
25112;DHT22;13092;51.996;4.458;2023-02-08T07:47:14;-0.30;99.90
25112;DHT22;13092;51.996;4.458;2023-02-08T07:49:44;-0.20;99.90
25112;DHT22;13092;51.996;4.458;2023-02-08T07:52:12;-0.20;99.90
25112;DHT22;13092;51.996;4.458;2023-02-08T07:54:40;-0.20;99.90
25112;DHT22;13092;51.996;4.458;2023-02-08T07:57:08;-0.10;99.90
25112;DHT22;13092;51.996;4.458;2023-02-08T07:59:36;-0.10;99.90
25112;DHT22;13092;51.996;4.458;2023-02-08T08:02:04;-0.10;99.90
25112;DHT22;13092;51.996;4.458;2023-02-08T08:04:33;0.00;99.90
25112;DHT22;13092;51.996;4.458;2023-02-08T08:07:02;0.00;99.90
25112;DHT22;13092;51.996;4.458;2023-02-08T08:09:33;0.00;99.90
25112;DHT22;13092;51.996;4.458;2023-02-08T08:12:01;0.00;99.90
25112;DHT22;13092;51.996;4.458;2023-02-08T08:14:30;0.50;99.90
25112;DHT22;13092;51.996;4.458;2023-02-08T08:16:59;0.10;99.90
25112;DHT22;13092;51.996;4.458;2023-02-08T08:19:27;0.10;99.90
25112;DHT22;13092;51.996;4.458;2023-02-08T08:21:56;0.10;99.90
25112;DHT22;13092;51.996;4.458;2023-02-08T08:24:25;0.10;99.90
25112;DHT22;13092;51.996;4.458;2023-02-08T08:26:54;0.10;99.90
25112;DHT22;13092;51.996;4.458;2023-02-08T08:29:22;0.20;99.90
25112;DHT22;13092;51.996;4.458;2023-02-08T08:31:50;0.20;99.90
25112;DHT22;13092;51.996;4.458;2023-02-08T08:34:19;0.30;99.90
25112;DHT22;13092;51.996;4.458;2023-02-08T08:36:48;0.20;99.90
25112;DHT22;13092;51.996;4.458;2023-02-08T08:39:16;0.30;99.90
25112;DHT22;13092;51.996;4.458;2023-02-08T08:41:45;0.40;99.90
25112;DHT22;13092;51.996;4.458;2023-02-08T08:44:14;0.40;99.90
25112;DHT22;13092;51.996;4.458;2023-02-08T08:46:41;0.40;99.90
25112;DHT22;13092;51.996;4.458;2023-02-08T08:49:10;0.50;99.90
25112;DHT22;13092;51.996;4.458;2023-02-08T08:51:38;0.50;99.90
25112;DHT22;13092;51.996;4.458;2023-02-08T08:54:06;0.60;99.90
25112;DHT22;13092;51.996;4.458;2023-02-08T08:56:34;0.60;99.90
25112;DHT22;13092;51.996;4.458;2023-02-08T08:59:04;1.50;99.90
25112;DHT22;13092;51.996;4.458;2023-02-08T09:01:32;0.70;99.90
25112;DHT22;13092;51.996;4.458;2023-02-08T09:04:01;0.80;99.90
25112;DHT22;13092;51.996;4.458;2023-02-08T09:06:29;0.80;99.90
25112;DHT22;13092;51.996;4.458;2023-02-08T09:08:57;0.90;99.90
25112;DHT22;13092;51.996;4.458;2023-02-08T09:11:25;0.90;99.90
25112;DHT22;13092;51.996;4.458;2023-02-08T09:13:53;1.00;99.90
25112;DHT22;13092;51.996;4.458;2023-02-08T09:16:23;2.20;99.90
25112;DHT22;13092;51.996;4.458;2023-02-08T09:18:53;1.10;99.90
25112;DHT22;13092;51.996;4.458;2023-02-08T09:21:22;1.20;99.90
25112;DHT22;13092;51.996;4.458;2023-02-08T09:23:51;1.20;99.90
25112;DHT22;13092;51.996;4.458;2023-02-08T09:26:20;1.30;99.90
25112;DHT22;13092;51.996;4.458;2023-02-08T09:28:48;1.40;99.90
25112;DHT22;13092;51.996;4.458;2023-02-08T09:31:18;1.40;99.90
25112;DHT22;13092;51.996;4.458;2023-02-08T09:33:49;1.50;99.90
25112;DHT22;13092;51.996;4.458;2023-02-08T09:36:18;1.70;99.90
25112;DHT22;13092;51.996;4.458;2023-02-08T09:38:47;1.60;99.90
25112;DHT22;13092;51.996;4.458;2023-02-08T09:41:25;1.60;99.90
25112;DHT22;13092;51.996;4.458;2023-02-08T09:44:09;1.70;99.90
25112;DHT22;13092;51.996;4.458;2023-02-08T09:46:40;1.70;99.90
25112;DHT22;13092;51.996;4.458;2023-02-08T09:49:17;1.80;99.90
25112;DHT22;13092;51.996;4.458;2023-02-08T09:51:51;1.90;99.90
25112;DHT22;13092;51.996;4.458;2023-02-08T09:54:24;1.90;99.90
25112;DHT22;13092;51.996;4.458;2023-02-08T09:56:53;2.00;99.90
25112;DHT22;13092;51.996;4.458;2023-02-08T09:59:23;2.10;99.90
25112;DHT22;13092;51.996;4.458;2023-02-08T10:01:55;2.10;99.90
25112;DHT22;13092;51.996;4.458;2023-02-08T10:04:36;2.20;99.90
25112;DHT22;13092;51.996;4.458;2023-02-08T10:07:09;2.30;99.90
25112;DHT22;13092;51.996;4.458;2023-02-08T10:09:38;2.30;99.90
25112;DHT22;13092;51.996;4.458;2023-02-08T10:12:13;2.40;99.90
25112;DHT22;13092;51.996;4.458;2023-02-08T10:15:01;2.50;99.90
25112;DHT22;13092;51.996;4.458;2023-02-08T10:17:48;2.50;99.90
25112;DHT22;13092;51.996;4.458;2023-02-08T10:20:29;2.60;99.90
25112;DHT22;13092;51.996;4.458;2023-02-08T10:23:06;2.60;99.90
25112;DHT22;13092;51.996;4.458;2023-02-08T10:25:57;2.90;99.90
25112;DHT22;13092;51.996;4.458;2023-02-08T10:28:37;2.80;99.90
25112;DHT22;13092;51.996;4.458;2023-02-08T10:31:13;2.50;99.90
25112;DHT22;13092;51.996;4.458;2023-02-08T10:33:53;3.20;99.90
25112;DHT22;13092;51.996;4.458;2023-02-08T10:36:26;2.90;99.90
25112;DHT22;13092;51.996;4.458;2023-02-08T10:38:56;3.20;99.90
25112;DHT22;13092;51.996;4.458;2023-02-08T10:41:31;3.50;99.90
25112;DHT22;13092;51.996;4.458;2023-02-08T10:44:08;3.20;99.90
25112;DHT22;13092;51.996;4.458;2023-02-08T10:46:45;3.30;99.90
25112;DHT22;13092;51.996;4.458;2023-02-08T10:49:17;3.70;99.90
25112;DHT22;13092;51.996;4.458;2023-02-08T10:51:50;3.40;99.90
25112;DHT22;13092;51.996;4.458;2023-02-08T10:54:19;3.70;99.90
25112;DHT22;13092;51.996;4.458;2023-02-08T10:56:52;3.60;99.90
25112;DHT22;13092;51.996;4.458;2023-02-08T10:59:34;3.70;99.90
25112;DHT22;13092;51.996;4.458;2023-02-08T11:02:19;3.70;99.90
25112;DHT22;13092;51.996;4.458;2023-02-08T11:04:57;3.90;99.90
25112;DHT22;13092;51.996;4.458;2023-02-08T11:07:27;3.90;99.90
25112;DHT22;13092;51.996;4.458;2023-02-08T11:10:23;4.10;99.90
25112;DHT22;13092;51.996;4.458;2023-02-08T11:12:56;4.20;99.90
25112;DHT22;13092;51.996;4.458;2023-02-08T11:15:28;4.20;99.90
25112;DHT22;13092;51.996;4.458;2023-02-08T11:18:00;4.30;99.90
25112;DHT22;13092;51.996;4.458;2023-02-08T11:20:33;4.10;99.90
25112;DHT22;13092;51.996;4.458;2023-02-08T11:23:05;4.60;99.90
25112;DHT22;13092;51.996;4.458;2023-02-08T11:25:44;4.40;99.90
25112;DHT22;13092;51.996;4.458;2023-02-08T11:28:26;4.80;99.90
25112;DHT22;13092;51.996;4.458;2023-02-08T11:31:13;4.70;99.90
25112;DHT22;13092;51.996;4.458;2023-02-08T11:33:57;4.80;99.90
25112;DHT22;13092;51.996;4.458;2023-02-08T11:36:27;4.90;99.90
25112;DHT22;13092;51.996;4.458;2023-02-08T11:39:02;5.30;99.90
25112;DHT22;13092;51.996;4.458;2023-02-08T11:41:31;5.10;99.90
25112;DHT22;13092;51.996;4.458;2023-02-08T11:44:02;5.00;99.90
25112;DHT22;13092;51.996;4.458;2023-02-08T11:46:33;5.30;99.90
25112;DHT22;13092;51.996;4.458;2023-02-08T11:49:03;5.30;99.90
25112;DHT22;13092;51.996;4.458;2023-02-08T11:51:36;5.40;99.90
25112;DHT22;13092;51.996;4.458;2023-02-08T11:54:32;5.50;99.90
25112;DHT22;13092;51.996;4.458;2023-02-08T11:57:01;5.60;99.90
25112;DHT22;13092;51.996;4.458;2023-02-08T11:59:30;5.80;99.90
25112;DHT22;13092;51.996;4.458;2023-02-08T12:02:21;5.70;99.90
25112;DHT22;13092;51.996;4.458;2023-02-08T12:04:53;5.90;99.90
25112;DHT22;13092;51.996;4.458;2023-02-08T12:07:26;6.00;99.90
25112;DHT22;13092;51.996;4.458;2023-02-08T12:13:11;6.20;99.90
25112;DHT22;13092;51.996;4.458;2023-02-08T12:15:49;6.30;99.90
25112;DHT22;13092;51.996;4.458;2023-02-08T12:18:49;6.40;99.90
25112;DHT22;13092;51.996;4.458;2023-02-08T12:21:23;6.50;99.90
25112;DHT22;13092;51.996;4.458;2023-02-08T12:23:54;6.60;99.90
25112;DHT22;13092;51.996;4.458;2023-02-08T12:26:42;6.80;99.90
25112;DHT22;13092;51.996;4.458;2023-02-08T12:29:21;6.70;99.90
25112;DHT22;13092;51.996;4.458;2023-02-08T12:32:14;6.80;99.90
25112;DHT22;13092;51.996;4.458;2023-02-08T12:34:55;6.90;99.90
25112;DHT22;13092;51.996;4.458;2023-02-08T12:37:36;7.00;99.90
25112;DHT22;13092;51.996;4.458;2023-02-08T12:40:33;7.10;99.90
25112;DHT22;13092;51.996;4.458;2023-02-08T12:43:36;7.10;99.90
25112;DHT22;13092;51.996;4.458;2023-02-08T12:46:21;7.20;99.90
25112;DHT22;13092;51.996;4.458;2023-02-08T12:49:24;7.30;99.90
25112;DHT22;13092;51.996;4.458;2023-02-08T12:52:01;7.30;99.90
25112;DHT22;13092;51.996;4.458;2023-02-08T12:54:36;7.40;99.90
25112;DHT22;13092;51.996;4.458;2023-02-08T12:57:12;7.40;99.90
25112;DHT22;13092;51.996;4.458;2023-02-08T12:59:43;7.50;99.90
25112;DHT22;13092;51.996;4.458;2023-02-08T13:02:17;7.50;99.90
25112;DHT22;13092;51.996;4.458;2023-02-08T13:04:48;7.60;99.90
25112;DHT22;13092;51.996;4.458;2023-02-08T13:07:22;7.70;99.90
25112;DHT22;13092;51.996;4.458;2023-02-08T13:09:58;7.70;99.90
25112;DHT22;13092;51.996;4.458;2023-02-08T13:12:33;7.70;99.90
25112;DHT22;13092;51.996;4.458;2023-02-08T13:15:10;7.80;99.90
25112;DHT22;13092;51.996;4.458;2023-02-08T13:17:58;7.80;99.90
25112;DHT22;13092;51.996;4.458;2023-02-08T13:20:36;7.80;99.90
25112;DHT22;13092;51.996;4.458;2023-02-08T13:23:14;7.80;99.90
25112;DHT22;13092;51.996;4.458;2023-02-08T13:25:47;7.90;99.90
25112;DHT22;13092;51.996;4.458;2023-02-08T13:28:19;7.90;99.90
25112;DHT22;13092;51.996;4.458;2023-02-08T13:31:00;7.90;99.90
25112;DHT22;13092;51.996;4.458;2023-02-08T13:33:35;8.00;99.90
25112;DHT22;13092;51.996;4.458;2023-02-08T13:36:28;8.10;99.90
25112;DHT22;13092;51.996;4.458;2023-02-08T13:38:59;8.10;99.90
25112;DHT22;13092;51.996;4.458;2023-02-08T13:41:29;8.10;99.90
25112;DHT22;13092;51.996;4.458;2023-02-08T13:44:01;8.20;99.90
25112;DHT22;13092;51.996;4.458;2023-02-08T13:46:35;8.20;99.90
25112;DHT22;13092;51.996;4.458;2023-02-08T13:49:06;8.30;99.90
25112;DHT22;13092;51.996;4.458;2023-02-08T13:51:51;8.50;99.90
25112;DHT22;13092;51.996;4.458;2023-02-08T13:54:19;8.40;99.90
25112;DHT22;13092;51.996;4.458;2023-02-08T13:56:49;8.40;99.90
25112;DHT22;13092;51.996;4.458;2023-02-08T14:02:20;8.30;99.90
25112;DHT22;13092;51.996;4.458;2023-02-08T14:04:53;8.40;99.90
25112;DHT22;13092;51.996;4.458;2023-02-08T14:07:29;8.40;99.90
25112;DHT22;13092;51.996;4.458;2023-02-08T14:10:14;8.40;99.90
25112;DHT22;13092;51.996;4.458;2023-02-08T14:12:49;8.50;99.90
25112;DHT22;13092;51.996;4.458;2023-02-08T14:15:28;8.50;99.90
25112;DHT22;13092;51.996;4.458;2023-02-08T14:18:02;8.50;99.90
25112;DHT22;13092;51.996;4.458;2023-02-08T14:20:35;8.50;99.90
25112;DHT22;13092;51.996;4.458;2023-02-08T14:23:19;8.50;99.90
25112;DHT22;13092;51.996;4.458;2023-02-08T14:25:52;8.50;99.90
25112;DHT22;13092;51.996;4.458;2023-02-08T14:28:27;8.50;99.90
25112;DHT22;13092;51.996;4.458;2023-02-08T14:30:58;8.50;99.90
25112;DHT22;13092;51.996;4.458;2023-02-08T14:33:29;8.60;99.90
25112;DHT22;13092;51.996;4.458;2023-02-08T14:36:03;8.70;99.90
25112;DHT22;13092;51.996;4.458;2023-02-08T14:41:50;8.70;99.90
25112;DHT22;13092;51.996;4.458;2023-02-08T14:47:53;8.70;99.90
25112;DHT22;13092;51.996;4.458;2023-02-08T14:50:25;8.70;99.90
25112;DHT22;13092;51.996;4.458;2023-02-08T14:53:03;8.70;99.90
25112;DHT22;13092;51.996;4.458;2023-02-08T14:55:39;8.70;99.90
25112;DHT22;13092;51.996;4.458;2023-02-08T14:58:13;8.80;99.90
25112;DHT22;13092;51.996;4.458;2023-02-08T15:00:42;8.80;99.90
25112;DHT22;13092;51.996;4.458;2023-02-08T15:03:13;8.80;99.90
25112;DHT22;13092;51.996;4.458;2023-02-08T15:05:56;8.80;99.90
25112;DHT22;13092;51.996;4.458;2023-02-08T15:08:31;8.80;99.90
25112;DHT22;13092;51.996;4.458;2023-02-08T15:10:59;8.80;99.90
25112;DHT22;13092;51.996;4.458;2023-02-08T15:13:28;8.70;99.90
25112;DHT22;13092;51.996;4.458;2023-02-08T15:15:57;8.70;99.90
25112;DHT22;13092;51.996;4.458;2023-02-08T15:18:29;8.80;99.90
25112;DHT22;13092;51.996;4.458;2023-02-08T15:21:01;8.80;99.90
25112;DHT22;13092;51.996;4.458;2023-02-08T15:23:32;8.90;99.90
25112;DHT22;13092;51.996;4.458;2023-02-08T15:26:02;8.70;99.90
25112;DHT22;13092;51.996;4.458;2023-02-08T15:28:33;8.80;99.90
25112;DHT22;13092;51.996;4.458;2023-02-08T15:31:04;8.70;99.90
25112;DHT22;13092;51.996;4.458;2023-02-08T15:33:33;8.80;99.90
25112;DHT22;13092;51.996;4.458;2023-02-08T15:36:04;8.80;99.90
25112;DHT22;13092;51.996;4.458;2023-02-08T15:38:36;8.80;99.90
25112;DHT22;13092;51.996;4.458;2023-02-08T15:41:07;8.80;99.90
25112;DHT22;13092;51.996;4.458;2023-02-08T15:43:36;8.70;99.90
25112;DHT22;13092;51.996;4.458;2023-02-08T15:46:14;8.70;99.90
25112;DHT22;13092;51.996;4.458;2023-02-08T15:48:44;8.60;99.90
25112;DHT22;13092;51.996;4.458;2023-02-08T15:51:14;8.50;99.90
25112;DHT22;13092;51.996;4.458;2023-02-08T15:53:46;8.50;99.90
25112;DHT22;13092;51.996;4.458;2023-02-08T15:56:16;8.50;99.90
25112;DHT22;13092;51.996;4.458;2023-02-08T15:59:05;8.50;99.90
25112;DHT22;13092;51.996;4.458;2023-02-08T16:01:35;8.50;99.90
25112;DHT22;13092;51.996;4.458;2023-02-08T16:04:04;8.60;99.90
25112;DHT22;13092;51.996;4.458;2023-02-08T16:06:44;8.70;99.90
25112;DHT22;13092;51.996;4.458;2023-02-08T16:09:17;8.50;99.90
25112;DHT22;13092;51.996;4.458;2023-02-08T16:11:48;8.50;99.90
25112;DHT22;13092;51.996;4.458;2023-02-08T16:14:19;8.40;99.90
25112;DHT22;13092;51.996;4.458;2023-02-08T16:16:56;8.40;99.90
25112;DHT22;13092;51.996;4.458;2023-02-08T16:19:27;8.30;99.90
25112;DHT22;13092;51.996;4.458;2023-02-08T16:22:22;8.30;99.90
25112;DHT22;13092;51.996;4.458;2023-02-08T16:24:53;8.30;99.90
25112;DHT22;13092;51.996;4.458;2023-02-08T16:27:46;8.20;99.90
25112;DHT22;13092;51.996;4.458;2023-02-08T16:30:17;8.20;99.90
25112;DHT22;13092;51.996;4.458;2023-02-08T16:32:49;8.00;99.90
25112;DHT22;13092;51.996;4.458;2023-02-08T16:35:23;7.90;99.90